createdAt,value
2022-08-12T00:00:33.684Z,35.82
2022-08-12T00:03:21.022Z,36.28
2022-08-12T00:06:07.769Z,36.63
2022-08-12T00:08:56.289Z,36.24
2022-08-12T00:11:42.807Z,36.66
2022-08-12T00:14:29.338Z,37.16
2022-08-12T00:17:15.334Z,36.87
2022-08-12T00:20:01.826Z,36.17
2022-08-12T00:22:59.415Z,36.82
2022-08-12T00:26:22.294Z,36.93
2022-08-12T00:29:07.395Z,36.62
2022-08-12T00:31:53.470Z,37.25
2022-08-12T00:34:39.388Z,37.25
2022-08-12T00:37:26.120Z,36.88
2022-08-12T00:40:14.507Z,37.03
2022-08-12T00:42:42.707Z,36.80
2022-08-12T00:45:10.421Z,36.99
2022-08-12T00:47:37.864Z,38.51
2022-08-12T00:50:06.939Z,37.14
2022-08-12T00:52:35.200Z,37.42
2022-08-12T00:55:03.304Z,37.30
2022-08-12T00:57:34.489Z,38.36
2022-08-12T01:00:10.869Z,38.10
2022-08-12T01:02:42.765Z,38.16
2022-08-12T01:05:37.556Z,38.21
2022-08-12T01:08:24.462Z,38.14
2022-08-12T01:11:10.560Z,39.21
2022-08-12T01:13:44.450Z,38.32
2022-08-12T01:16:12.144Z,38.29
2022-08-12T01:18:40.205Z,38.81
2022-08-12T01:21:29.007Z,39.37
2022-08-12T01:24:30.391Z,39.83
2022-08-12T01:26:59.766Z,39.17
2022-08-12T01:29:32.673Z,40.40
2022-08-12T01:32:06.253Z,40.61
2022-08-12T01:34:37.415Z,40.02
2022-08-12T01:37:07.606Z,40.55
2022-08-12T01:40:33.650Z,41.16
2022-08-12T01:42:51.898Z,39.85
2022-08-12T01:45:22.914Z,40.14
2022-08-12T01:48:35.398Z,40.36
2022-08-12T01:51:24.404Z,39.65
2022-08-12T01:54:12.513Z,40.33
2022-08-12T01:56:49.914Z,39.71
2022-08-12T01:59:59.113Z,40.64
2022-08-12T02:02:29.909Z,41.02
2022-08-12T02:05:49.544Z,40.45
2022-08-12T02:08:54.564Z,40.38
2022-08-12T02:11:29.424Z,40.91
2022-08-12T02:14:10.999Z,40.41
2022-08-12T02:17:01.964Z,41.11
2022-08-12T02:20:00.302Z,41.89
2022-08-12T02:22:38.532Z,41.26
2022-08-12T02:25:16.664Z,41.60
2022-08-12T02:27:46.493Z,41.09
2022-08-12T02:30:16.079Z,41.82
2022-08-12T02:32:44.529Z,42.64
2022-08-12T02:35:15.031Z,41.52
2022-08-12T02:37:43.318Z,42.31
2022-08-12T02:40:12.368Z,43.28
2022-08-12T02:42:46.694Z,43.51
2022-08-12T02:45:14.321Z,43.48
2022-08-12T02:48:00.107Z,42.59
2022-08-12T02:50:29.510Z,42.30
2022-08-12T02:52:56.859Z,42.70
2022-08-12T02:55:34.498Z,43.42
2022-08-12T02:58:12.435Z,43.58
2022-08-12T03:00:43.394Z,42.80
2022-08-12T03:03:12.847Z,42.42
2022-08-12T03:05:54.539Z,42.96
2022-08-12T03:08:32.201Z,43.09
2022-08-12T03:11:06.270Z,42.71
2022-08-12T03:13:45.836Z,43.31
2022-08-12T03:16:14.537Z,43.57
2022-08-12T03:18:46.023Z,43.24
2022-08-12T03:21:16.245Z,43.18
2022-08-12T03:23:44.765Z,43.43
2022-08-12T03:26:12.430Z,44.76
2022-08-12T03:28:54.154Z,44.05
2022-08-12T03:31:29.898Z,44.96
2022-08-12T03:34:08.313Z,43.56
2022-08-12T03:36:37.835Z,44.30
2022-08-12T03:39:18.704Z,44.15
2022-08-12T03:42:26.449Z,43.55
2022-08-12T03:45:31.316Z,44.05
2022-08-12T03:48:25.612Z,44.92
2022-08-12T03:51:11.898Z,43.74
2022-08-12T03:53:58.275Z,43.71
2022-08-12T03:56:44.273Z,43.78
2022-08-12T03:59:30.448Z,43.18
2022-08-12T04:01:58.178Z,43.49
2022-08-12T04:04:28.531Z,43.23
2022-08-12T04:06:55.938Z,44.10
2022-08-12T04:09:23.312Z,44.22
2022-08-12T04:12:09.744Z,44.44
2022-08-12T04:14:38.022Z,43.51
2022-08-12T04:17:05.645Z,43.58
2022-08-12T04:19:33.201Z,43.25
2022-08-12T04:22:03.587Z,43.48
2022-08-12T04:24:35.641Z,43.17
2022-08-12T04:27:05.706Z,42.99
2022-08-12T04:30:31.075Z,42.96
2022-08-12T04:32:21.957Z,42.75
2022-08-12T04:34:50.551Z,43.03
2022-08-12T04:37:18.084Z,43.45
2022-08-12T04:39:45.636Z,43.98
2022-08-12T04:42:13.420Z,43.05
2022-08-12T04:44:42.141Z,42.68
2022-08-12T04:47:14.130Z,41.92
2022-08-12T04:49:41.831Z,42.04
2022-08-12T04:52:09.547Z,41.85
2022-08-12T04:54:37.724Z,41.60
2022-08-12T04:57:09.854Z,41.60
2022-08-12T04:59:46.781Z,41.33
2022-08-12T05:02:20.935Z,41.84
2022-08-12T05:04:53.446Z,40.99
2022-08-12T05:07:21.193Z,39.73
2022-08-12T05:10:01.851Z,40.10
2022-08-12T05:12:37.517Z,38.42
2022-08-12T05:15:16.875Z,38.12
2022-08-12T05:17:53.577Z,38.99
2022-08-12T05:20:22.711Z,38.49
2022-08-12T05:22:52.982Z,38.22
2022-08-12T05:25:24.645Z,38.17
2022-08-12T05:27:55.432Z,37.99
2022-08-12T05:30:27.603Z,36.69
2022-08-12T05:32:55.728Z,32.62
2022-08-12T05:35:27.950Z,29.99
2022-08-12T05:38:15.312Z,27.17
2022-08-12T05:40:42.966Z,24.63
2022-08-12T05:43:10.401Z,22.63
2022-08-12T05:45:42.881Z,20.93
2022-08-12T05:48:13.158Z,21.00
2022-08-12T05:50:41.254Z,20.63
2022-08-12T05:53:08.619Z,19.58
2022-08-12T05:55:37.195Z,17.93
2022-08-12T05:58:05.077Z,17.05
2022-08-12T06:00:32.452Z,16.39
2022-08-12T06:03:02.924Z,15.67
2022-08-12T06:05:43.071Z,15.78
2022-08-12T06:08:22.583Z,15.36
2022-08-12T06:10:50.375Z,16.11
2022-08-12T06:13:27.922Z,18.32
2022-08-12T06:16:07.392Z,18.16
2022-08-12T06:18:34.946Z,18.60
2022-08-12T06:21:02.575Z,16.26
2022-08-12T06:23:30.569Z,15.83
2022-08-12T06:25:58.118Z,14.79
2022-08-12T06:28:25.645Z,14.92
2022-08-12T06:31:22.126Z,16.66
2022-08-12T06:33:59.620Z,17.49
2022-08-12T06:36:33.391Z,16.61
2022-08-12T06:39:01.223Z,19.31
2022-08-12T06:42:02.426Z,21.37
2022-08-12T06:44:35.262Z,19.81
2022-08-12T06:47:02.632Z,19.28
2022-08-12T06:49:34.731Z,19.76
2022-08-12T06:52:04.512Z,19.45
2022-08-12T06:54:34.682Z,17.51
2022-08-12T06:57:04.836Z,16.58
2022-08-12T06:59:50.997Z,17.27
2022-08-12T07:02:20.621Z,16.59
2022-08-12T07:04:48.224Z,17.90
2022-08-12T07:07:15.636Z,16.58
2022-08-12T07:10:05.261Z,17.37
2022-08-12T07:12:31.244Z,15.75
2022-08-12T07:14:59.476Z,17.75
2022-08-12T07:17:35.835Z,16.46
2022-08-12T07:20:06.133Z,20.72
2022-08-12T07:22:33.618Z,16.68
2022-08-12T07:25:19.568Z,19.06
2022-08-12T07:27:47.767Z,15.60
2022-08-12T07:30:15.131Z,16.74
2022-08-12T07:32:42.608Z,15.43
2022-08-12T07:35:10.285Z,15.33
2022-08-12T07:37:42.063Z,15.63
2022-08-12T07:40:11.862Z,16.32
2022-08-12T07:42:40.594Z,16.24
2022-08-12T07:45:09.472Z,16.15
2022-08-12T07:47:37.879Z,15.84
2022-08-12T07:50:09.186Z,15.41
2022-08-12T07:52:38.520Z,15.25
2022-08-12T07:55:06.450Z,14.45
2022-08-12T07:57:33.905Z,15.88
2022-08-12T08:00:03.490Z,13.90
2022-08-12T08:02:36.413Z,14.95
2022-08-12T08:05:04.564Z,13.22
2022-08-12T08:07:32.094Z,12.99
2022-08-12T08:10:00.208Z,13.34
2022-08-12T08:12:46.971Z,14.49
2022-08-12T08:15:15.591Z,12.65
2022-08-12T08:18:25.780Z,11.77
2022-08-12T08:20:54.827Z,13.74
2022-08-12T08:23:22.471Z,11.85
2022-08-12T08:26:02.199Z,14.21
2022-08-12T08:28:29.800Z,12.96
2022-08-12T08:30:57.136Z,11.79
2022-08-12T08:34:01.466Z,12.58
2022-08-12T08:36:23.691Z,12.48
2022-08-12T08:38:53.251Z,14.23
2022-08-12T08:42:16.577Z,14.69
2022-08-12T08:44:38.162Z,12.34
2022-08-12T08:47:06.650Z,14.75
2022-08-12T08:49:37.348Z,15.56
2022-08-12T08:52:06.082Z,13.73
2022-08-12T08:54:34.318Z,12.30
2022-08-12T08:57:02.263Z,13.10
2022-08-12T08:59:29.678Z,13.33
2022-08-12T09:01:57.651Z,11.34
2022-08-12T09:05:11.973Z,11.38
2022-08-12T09:07:16.864Z,15.31
2022-08-12T09:10:02.047Z,13.29
2022-08-12T09:12:55.240Z,11.86
2022-08-12T09:15:34.872Z,11.74
2022-08-12T09:18:08.934Z,12.41
2022-08-12T09:20:37.071Z,12.34
2022-08-12T09:23:08.042Z,12.48
2022-08-12T09:25:53.070Z,13.62
2022-08-12T09:28:31.109Z,13.25
2022-08-12T09:30:59.666Z,13.86
2022-08-12T09:34:26.180Z,13.24
2022-08-12T09:36:30.940Z,12.82
2022-08-12T09:40:03.189Z,11.49
2022-08-12T09:42:52.977Z,10.46
2022-08-12T09:45:18.812Z,10.68
2022-08-12T09:47:56.991Z,11.16
2022-08-12T09:50:28.114Z,14.26
2022-08-12T09:54:31.698Z,13.82
2022-08-12T09:56:56.623Z,13.15
2022-08-12T09:59:00.241Z,11.29
2022-08-12T10:01:35.771Z,14.18
2022-08-12T10:04:19.524Z,14.76
2022-08-12T10:06:54.857Z,14.56
2022-08-12T10:09:28.920Z,13.94
2022-08-12T10:12:31.325Z,12.50
2022-08-12T10:15:01.967Z,13.18
2022-08-12T10:17:29.816Z,12.18
2022-08-12T10:19:59.411Z,11.57
2022-08-12T10:22:39.981Z,11.11
2022-08-12T10:26:34.419Z,11.55
2022-08-12T10:28:34.565Z,11.45
2022-08-12T10:31:01.887Z,11.77
2022-08-12T10:33:55.061Z,13.95
2022-08-12T10:36:39.898Z,14.80
2022-08-12T10:39:44.307Z,14.14
2022-08-12T10:42:15.666Z,12.67
2022-08-12T10:44:46.860Z,15.87
2022-08-12T10:47:26.604Z,16.91
2022-08-12T10:50:28.107Z,19.66
2022-08-12T10:52:54.740Z,20.61
2022-08-12T10:55:22.435Z,22.27
2022-08-12T10:58:27.677Z,23.01
2022-08-12T11:00:55.079Z,23.34
2022-08-12T11:04:34.269Z,22.85
2022-08-12T11:07:07.639Z,24.61
2022-08-12T11:09:07.232Z,23.87
2022-08-12T11:12:35.804Z,23.89
2022-08-12T11:14:49.488Z,24.65
2022-08-12T11:17:43.944Z,23.85
2022-08-12T11:20:03.798Z,23.43
2022-08-12T11:22:32.326Z,23.12
2022-08-12T11:24:59.813Z,24.26
2022-08-12T11:27:29.476Z,23.99
2022-08-12T11:30:06.374Z,25.13
2022-08-12T11:32:38.517Z,24.08
2022-08-12T11:35:08.152Z,24.24
2022-08-12T11:37:59.459Z,25.98
2022-08-12T11:40:26.117Z,25.41
2022-08-12T11:43:19.035Z,25.28
2022-08-12T11:45:53.192Z,25.26
2022-08-12T11:48:26.926Z,25.12
2022-08-12T11:50:55.337Z,24.61
2022-08-12T11:53:59.000Z,24.16
2022-08-12T11:56:11.350Z,24.01
2022-08-12T12:01:59.025Z,23.35
2022-08-12T12:02:03.412Z,23.54
2022-08-12T12:04:28.983Z,23.76
2022-08-12T12:07:07.551Z,25.30
2022-08-12T12:09:50.742Z,26.67
2022-08-12T12:12:22.533Z,25.82
2022-08-12T12:14:54.837Z,25.87
2022-08-12T12:17:24.485Z,25.90
2022-08-12T12:19:53.249Z,26.42
2022-08-12T12:22:23.738Z,25.52
2022-08-12T12:24:59.143Z,25.33
2022-08-12T12:28:04.871Z,26.28
2022-08-12T12:30:37.247Z,25.41
2022-08-12T12:33:05.907Z,26.44
2022-08-12T12:36:19.903Z,26.23
2022-08-12T12:38:21.117Z,26.72
2022-08-12T12:40:53.193Z,26.51
2022-08-12T12:43:42.522Z,26.86
2022-08-12T12:46:09.198Z,27.51
2022-08-12T12:48:36.549Z,25.81
2022-08-12T12:51:22.122Z,24.82
2022-08-12T12:54:06.710Z,27.09
2022-08-12T12:56:40.493Z,25.88
2022-08-12T12:59:55.845Z,26.89
2022-08-12T13:01:55.793Z,26.54
2022-08-12T13:04:24.664Z,27.40
2022-08-12T13:06:52.359Z,27.12
2022-08-12T13:09:22.796Z,26.54
2022-08-12T13:11:53.474Z,24.97
2022-08-12T13:14:27.975Z,24.21
2022-08-12T13:17:02.363Z,26.44
2022-08-12T13:19:38.769Z,25.24
2022-08-12T13:22:20.429Z,24.25
2022-08-12T13:24:54.555Z,22.97
2022-08-12T13:27:35.151Z,21.51
2022-08-12T13:30:06.783Z,21.13
2022-08-12T13:32:39.617Z,22.88
2022-08-12T13:35:20.148Z,23.37
2022-08-12T13:37:57.499Z,22.64
2022-08-12T13:40:29.191Z,22.46
2022-08-12T13:43:01.484Z,22.06
2022-08-12T13:45:30.280Z,22.53
2022-08-12T13:48:02.325Z,22.13
2022-08-12T13:50:36.307Z,22.28
2022-08-12T13:53:24.223Z,25.40
2022-08-12T13:56:01.654Z,25.80
2022-08-12T13:58:30.777Z,24.62
2022-08-12T14:01:05.721Z,24.08
2022-08-12T14:03:50.100Z,24.70
2022-08-12T14:06:18.231Z,24.50
2022-08-12T14:08:49.987Z,25.55
2022-08-12T14:11:19.171Z,25.20
2022-08-12T14:14:05.929Z,24.90
2022-08-12T14:16:48.740Z,26.26
2022-08-12T14:19:25.070Z,24.83
2022-08-12T14:22:00.937Z,24.63
2022-08-12T14:24:35.623Z,25.36
2022-08-12T14:27:09.181Z,25.77
2022-08-12T14:30:04.926Z,25.54
2022-08-12T14:32:35.279Z,26.37
2022-08-12T14:35:10.954Z,25.81
2022-08-12T14:37:56.073Z,25.21
2022-08-12T14:40:28.476Z,24.85
2022-08-12T14:42:59.758Z,24.92
2022-08-12T14:45:45.227Z,24.37
2022-08-12T14:48:18.700Z,23.74
2022-08-12T14:51:03.307Z,24.42
2022-08-12T14:59:56.477Z,24.92
2022-08-12T15:02:20.600Z,25.11
2022-08-12T15:04:53.272Z,24.25
2022-08-12T15:07:33.609Z,24.33
2022-08-12T15:10:09.375Z,23.68
2022-08-12T15:12:40.555Z,23.05
2022-08-12T15:15:10.274Z,23.21
2022-08-12T15:17:38.842Z,24.80
2022-08-12T15:20:31.386Z,24.23
2022-08-12T15:22:56.536Z,23.87
2022-08-12T15:25:28.872Z,23.97
2022-08-12T15:28:10.868Z,24.63
2022-08-12T15:30:52.203Z,26.04
2022-08-12T15:33:24.276Z,25.64
2022-08-12T15:35:53.372Z,25.26
2022-08-12T15:38:31.203Z,25.12
2022-08-12T15:41:00.057Z,26.15
2022-08-12T15:43:51.716Z,25.94
2022-08-12T15:46:17.075Z,26.50
2022-08-12T15:48:47.169Z,25.97
2022-08-12T15:51:57.215Z,25.31
2022-08-12T15:54:30.737Z,24.64
2022-08-12T15:57:10.881Z,25.78
2022-08-12T16:00:00.070Z,24.95
2022-08-12T16:02:50.545Z,25.57
2022-08-12T16:06:19.435Z,25.32
2022-08-12T16:08:17.159Z,24.64
2022-08-12T16:10:47.652Z,25.10
2022-08-12T16:13:18.247Z,25.48
2022-08-12T16:16:03.478Z,26.44
2022-08-12T16:18:33.361Z,25.12
2022-08-12T16:21:01.717Z,25.88
2022-08-12T16:23:51.791Z,25.24
2022-08-12T16:26:20.437Z,25.42
2022-08-12T16:28:56.150Z,26.44
2022-08-12T16:31:24.722Z,27.59
2022-08-12T16:34:00.126Z,29.16
2022-08-12T16:36:31.311Z,28.69
2022-08-12T16:39:01.769Z,29.48
2022-08-12T16:41:39.826Z,30.26
2022-08-12T16:44:09.130Z,29.60
2022-08-12T16:46:37.796Z,30.84
2022-08-12T16:49:12.898Z,30.50
2022-08-12T16:51:46.972Z,31.07
2022-08-12T16:54:19.058Z,31.95
2022-08-12T16:56:54.473Z,30.88
2022-08-12T16:59:30.588Z,30.51
2022-08-12T17:01:58.945Z,30.21
2022-08-12T17:04:28.489Z,29.98
2022-08-12T17:06:56.053Z,30.01
2022-08-12T17:09:25.427Z,30.29
2022-08-12T17:11:52.886Z,30.75
2022-08-12T17:14:24.701Z,29.65
2022-08-12T17:16:55.050Z,30.00
2022-08-12T17:20:28.556Z,29.52
2022-08-12T17:22:15.002Z,29.68
2022-08-12T17:24:43.975Z,29.66
2022-08-12T17:27:18.404Z,29.79
2022-08-12T17:30:03.200Z,30.02
2022-08-12T17:32:34.970Z,29.29
2022-08-12T17:35:21.038Z,29.47
2022-08-12T17:37:48.867Z,29.92
2022-08-12T17:40:35.974Z,29.80
2022-08-12T17:43:56.345Z,30.62
2022-08-12T17:45:58.888Z,29.93
2022-08-12T17:48:34.954Z,30.60
2022-08-12T17:51:15.767Z,30.60
2022-08-12T17:54:11.416Z,31.22
2022-08-12T17:56:36.793Z,31.00
2022-08-12T17:59:07.356Z,30.97
2022-08-12T18:01:36.557Z,30.97
2022-08-12T18:04:21.283Z,31.19
2022-08-12T18:06:51.229Z,31.34
2022-08-12T18:09:20.489Z,31.34
2022-08-12T18:12:08.163Z,31.40
2022-08-12T18:14:40.924Z,31.76
2022-08-12T18:17:09.622Z,31.11
2022-08-12T18:20:04.927Z,31.28
2022-08-12T18:22:30.895Z,32.19
2022-08-12T18:25:02.594Z,32.69
2022-08-12T18:27:43.874Z,32.08
2022-08-12T18:30:20.904Z,32.23
2022-08-12T18:33:04.692Z,32.54
2022-08-12T18:35:47.819Z,32.61
2022-08-12T18:38:22.160Z,32.45
2022-08-12T18:41:09.757Z,31.73
2022-08-12T18:43:59.321Z,32.41
2022-08-12T18:46:48.787Z,33.48
2022-08-12T18:49:30.730Z,33.44
2022-08-12T18:52:04.168Z,33.23
2022-08-12T18:54:41.579Z,33.70
2022-08-12T18:57:20.023Z,34.21
2022-08-12T19:00:07.613Z,33.99
2022-08-12T19:02:40.355Z,33.59
2022-08-12T19:05:12.169Z,33.66
2022-08-12T19:08:00.691Z,33.38
2022-08-12T19:10:30.312Z,33.38
2022-08-12T19:13:23.501Z,33.70
2022-08-12T19:15:57.843Z,33.96
2022-08-12T19:18:30.145Z,34.49
2022-08-12T19:21:00.434Z,34.50
2022-08-12T19:23:35.515Z,34.51
2022-08-12T19:26:04.411Z,34.63
2022-08-12T19:28:35.566Z,34.39
2022-08-12T19:31:55.602Z,34.99
2022-08-12T19:37:27.128Z,34.52
2022-08-12T19:40:10.317Z,34.64
2022-08-12T19:42:53.877Z,34.89
2022-08-12T19:45:41.776Z,34.89
2022-08-12T19:48:16.762Z,34.81
2022-08-12T19:50:50.238Z,34.91
2022-08-12T19:53:24.117Z,34.82
2022-08-12T19:55:55.343Z,34.68
2022-08-12T19:58:23.582Z,34.87
2022-08-12T20:00:54.740Z,35.22
2022-08-12T20:03:39.380Z,35.05
2022-08-12T20:06:13.803Z,35.09
2022-08-12T20:08:48.775Z,35.72
2022-08-12T20:12:11.726Z,35.96
2022-08-12T20:14:05.432Z,35.74
2022-08-12T20:16:57.464Z,37.01
2022-08-12T20:19:52.754Z,36.25
2022-08-12T20:22:24.955Z,36.54
2022-08-12T20:25:00.877Z,36.38
2022-08-12T20:28:02.730Z,36.78
2022-08-12T20:30:52.459Z,36.58
2022-08-12T20:33:17.872Z,36.33
2022-08-12T20:36:06.725Z,36.21
2022-08-12T20:38:39.653Z,36.32
2022-08-12T20:41:17.616Z,36.40
2022-08-12T20:43:50.451Z,36.57
2022-08-12T20:46:19.169Z,36.95
2022-08-12T20:48:46.956Z,36.36
2022-08-12T20:51:23.071Z,36.43
2022-08-12T20:53:57.646Z,36.23
2022-08-12T20:56:33.492Z,36.08
2022-08-12T20:59:14.885Z,36.07
2022-08-12T21:01:48.522Z,36.93
2022-08-12T21:04:36.008Z,36.81
2022-08-12T21:07:09.051Z,36.52
2022-08-12T21:09:44.453Z,36.84
2022-08-12T21:12:27.524Z,36.83
2022-08-12T21:15:17.363Z,37.17
2022-08-12T21:18:09.623Z,37.71
2022-08-12T21:20:37.035Z,37.26
2022-08-12T21:23:06.467Z,37.08
2022-08-12T21:25:44.284Z,37.20
2022-08-12T21:28:14.346Z,36.93
2022-08-12T21:31:11.722Z,37.18
2022-08-12T21:33:58.910Z,37.18
2022-08-12T21:36:34.160Z,37.19
2022-08-12T21:39:20.171Z,36.92
2022-08-12T21:41:52.752Z,36.67
2022-08-12T21:44:24.395Z,36.55
2022-08-12T21:47:20.488Z,36.39
2022-08-12T21:50:03.074Z,36.44
2022-08-12T21:52:36.175Z,36.73
2022-08-12T21:55:08.316Z,37.02
2022-08-12T21:57:51.196Z,37.67
2022-08-12T22:00:33.189Z,36.88
2022-08-12T22:03:25.128Z,37.11
2022-08-12T22:06:26.454Z,37.52
2022-08-12T22:09:02.154Z,37.49
2022-08-12T22:11:42.431Z,36.87
2022-08-12T22:14:21.988Z,36.44
2022-08-12T22:16:52.935Z,36.79
2022-08-12T22:19:21.492Z,36.61
2022-08-12T22:21:54.619Z,35.94
2022-08-12T22:24:26.275Z,36.79
2022-08-12T22:27:07.938Z,37.12
2022-08-12T22:30:07.162Z,36.91
2022-08-12T22:32:38.731Z,36.93
2022-08-12T22:35:29.021Z,36.70
2022-08-12T22:38:08.233Z,36.78
2022-08-12T22:40:39.662Z,37.33
2022-08-12T22:43:30.114Z,37.37
2022-08-12T22:46:16.530Z,37.58
2022-08-12T22:48:50.488Z,37.30
2022-08-12T22:51:22.374Z,37.41
2022-08-12T22:53:54.840Z,37.17
2022-08-12T22:56:31.027Z,37.17
2022-08-12T22:59:02.872Z,37.68
2022-08-12T23:02:01.330Z,37.58
2022-08-12T23:04:27.544Z,37.84
2022-08-12T23:06:56.740Z,38.16
2022-08-12T23:09:34.721Z,38.50
2022-08-12T23:12:37.407Z,38.42
2022-08-12T23:15:09.096Z,38.91
2022-08-12T23:17:40.077Z,38.42
2022-08-12T23:20:10.965Z,39.17
2022-08-12T23:22:40.085Z,38.51
2022-08-12T23:25:18.931Z,37.78
2022-08-12T23:28:30.199Z,38.16
2022-08-12T23:30:58.719Z,38.01
2022-08-12T23:34:01.819Z,37.42
2022-08-12T23:36:39.384Z,37.33
2022-08-12T23:40:14.560Z,40.53
2022-08-12T23:42:17.547Z,39.85
2022-08-12T23:44:48.564Z,39.08
2022-08-12T23:47:21.418Z,38.20
2022-08-12T23:49:57.959Z,38.16
2022-08-12T23:52:33.930Z,38.34
2022-08-12T23:55:24.808Z,38.77
2022-08-12T23:58:21.795Z,37.98
